sensor_id;sensor_type;location;lat;lon;timestamp;temperature;humidity
48876;DHT22;34689;51.644;5.618;2022-07-23T00:01:40;19.10;97.30
48876;DHT22;34689;51.644;5.618;2022-07-23T00:04:06;19.00;97.20
48876;DHT22;34689;51.644;5.618;2022-07-23T00:06:32;19.00;97.30
48876;DHT22;34689;51.644;5.618;2022-07-23T00:08:58;18.90;97.30
48876;DHT22;34689;51.644;5.618;2022-07-23T00:11:25;18.90;97.30
48876;DHT22;34689;51.644;5.618;2022-07-23T00:13:51;18.90;97.40
48876;DHT22;34689;51.644;5.618;2022-07-23T00:16:17;18.90;97.40
48876;DHT22;34689;51.644;5.618;2022-07-23T00:18:42;18.90;97.40
48876;DHT22;34689;51.644;5.618;2022-07-23T00:21:08;18.80;97.40
48876;DHT22;34689;51.644;5.618;2022-07-23T00:23:33;18.80;97.40
48876;DHT22;34689;51.644;5.618;2022-07-23T00:25:59;18.80;97.50
48876;DHT22;34689;51.644;5.618;2022-07-23T00:28:25;18.80;97.50
48876;DHT22;34689;51.644;5.618;2022-07-23T00:30:51;18.80;97.60
48876;DHT22;34689;51.644;5.618;2022-07-23T00:33:16;18.80;97.60
48876;DHT22;34689;51.644;5.618;2022-07-23T00:35:42;18.80;97.60
48876;DHT22;34689;51.644;5.618;2022-07-23T00:38:09;18.80;97.60
48876;DHT22;34689;51.644;5.618;2022-07-23T00:40:35;18.70;97.60
48876;DHT22;34689;51.644;5.618;2022-07-23T00:43:02;18.70;97.70
48876;DHT22;34689;51.644;5.618;2022-07-23T00:45:30;18.70;97.80
48876;DHT22;34689;51.644;5.618;2022-07-23T00:47:56;18.70;97.80
48876;DHT22;34689;51.644;5.618;2022-07-23T00:50:22;18.60;97.80
48876;DHT22;34689;51.644;5.618;2022-07-23T00:52:47;18.60;97.80
48876;DHT22;34689;51.644;5.618;2022-07-23T00:55:14;18.60;97.80
48876;DHT22;34689;51.644;5.618;2022-07-23T00:57:41;18.60;97.80
48876;DHT22;34689;51.644;5.618;2022-07-23T01:00:10;18.50;97.90
48876;DHT22;34689;51.644;5.618;2022-07-23T01:02:37;18.50;97.80
48876;DHT22;34689;51.644;5.618;2022-07-23T01:05:03;18.50;97.90
48876;DHT22;34689;51.644;5.618;2022-07-23T01:07:29;18.40;97.90
48876;DHT22;34689;51.644;5.618;2022-07-23T01:09:55;18.40;98.00
48876;DHT22;34689;51.644;5.618;2022-07-23T01:12:21;18.40;98.00
48876;DHT22;34689;51.644;5.618;2022-07-23T01:14:58;18.30;98.00
48876;DHT22;34689;51.644;5.618;2022-07-23T01:17:24;18.30;98.00
48876;DHT22;34689;51.644;5.618;2022-07-23T01:19:50;18.40;98.00
48876;DHT22;34689;51.644;5.618;2022-07-23T01:22:20;18.40;98.00
48876;DHT22;34689;51.644;5.618;2022-07-23T01:24:46;18.30;97.90
48876;DHT22;34689;51.644;5.618;2022-07-23T01:27:12;18.30;98.00
48876;DHT22;34689;51.644;5.618;2022-07-23T01:29:43;18.20;98.00
48876;DHT22;34689;51.644;5.618;2022-07-23T01:32:08;18.20;98.00
48876;DHT22;34689;51.644;5.618;2022-07-23T01:34:34;18.20;98.10
48876;DHT22;34689;51.644;5.618;2022-07-23T01:36:59;18.20;98.10
48876;DHT22;34689;51.644;5.618;2022-07-23T01:39:25;18.20;98.10
48876;DHT22;34689;51.644;5.618;2022-07-23T01:41:50;18.10;98.10
48876;DHT22;34689;51.644;5.618;2022-07-23T01:44:16;18.10;98.10
48876;DHT22;34689;51.644;5.618;2022-07-23T01:46:42;18.10;98.10
48876;DHT22;34689;51.644;5.618;2022-07-23T01:49:08;18.10;98.10
48876;DHT22;34689;51.644;5.618;2022-07-23T01:51:33;18.00;98.10
48876;DHT22;34689;51.644;5.618;2022-07-23T01:54:01;18.10;98.20
48876;DHT22;34689;51.644;5.618;2022-07-23T01:56:27;18.00;98.20
48876;DHT22;34689;51.644;5.618;2022-07-23T01:58:53;18.00;98.20
48876;DHT22;34689;51.644;5.618;2022-07-23T02:01:18;17.90;98.20
48876;DHT22;34689;51.644;5.618;2022-07-23T02:03:44;17.90;98.20
48876;DHT22;34689;51.644;5.618;2022-07-23T02:06:10;17.90;98.30
48876;DHT22;34689;51.644;5.618;2022-07-23T02:08:35;17.80;98.30
48876;DHT22;34689;51.644;5.618;2022-07-23T02:11:01;17.90;98.30
48876;DHT22;34689;51.644;5.618;2022-07-23T02:13:27;17.80;98.30
48876;DHT22;34689;51.644;5.618;2022-07-23T02:15:54;17.80;98.60
48876;DHT22;34689;51.644;5.618;2022-07-23T02:18:20;17.80;98.40
48876;DHT22;34689;51.644;5.618;2022-07-23T02:20:45;17.80;98.40
48876;DHT22;34689;51.644;5.618;2022-07-23T02:23:11;17.80;98.40
48876;DHT22;34689;51.644;5.618;2022-07-23T02:25:37;17.80;98.40
48876;DHT22;34689;51.644;5.618;2022-07-23T02:28:03;17.80;98.40
48876;DHT22;34689;51.644;5.618;2022-07-23T02:30:28;17.80;98.40
48876;DHT22;34689;51.644;5.618;2022-07-23T02:32:55;17.70;98.40
48876;DHT22;34689;51.644;5.618;2022-07-23T02:35:20;17.70;98.50
48876;DHT22;34689;51.644;5.618;2022-07-23T02:37:46;17.70;98.50
48876;DHT22;34689;51.644;5.618;2022-07-23T02:40:12;17.60;98.50
48876;DHT22;34689;51.644;5.618;2022-07-23T02:42:37;17.60;98.50
48876;DHT22;34689;51.644;5.618;2022-07-23T02:45:04;17.60;98.50
48876;DHT22;34689;51.644;5.618;2022-07-23T02:47:29;17.60;98.80
48876;DHT22;34689;51.644;5.618;2022-07-23T02:49:57;17.50;98.50
48876;DHT22;34689;51.644;5.618;2022-07-23T02:52:22;17.50;98.60
48876;DHT22;34689;51.644;5.618;2022-07-23T02:54:48;17.50;98.60
48876;DHT22;34689;51.644;5.618;2022-07-23T02:57:14;17.50;98.60
48876;DHT22;34689;51.644;5.618;2022-07-23T02:59:39;17.50;98.60
48876;DHT22;34689;51.644;5.618;2022-07-23T03:02:05;17.50;98.60
48876;DHT22;34689;51.644;5.618;2022-07-23T03:04:31;17.40;98.60
48876;DHT22;34689;51.644;5.618;2022-07-23T03:06:56;17.40;98.70
48876;DHT22;34689;51.644;5.618;2022-07-23T03:09:22;17.40;98.70
48876;DHT22;34689;51.644;5.618;2022-07-23T03:11:47;17.40;98.70
48876;DHT22;34689;51.644;5.618;2022-07-23T03:14:13;17.30;98.70
48876;DHT22;34689;51.644;5.618;2022-07-23T03:16:39;17.30;98.70
48876;DHT22;34689;51.644;5.618;2022-07-23T03:19:05;17.30;98.80
48876;DHT22;34689;51.644;5.618;2022-07-23T03:21:30;17.30;98.70
48876;DHT22;34689;51.644;5.618;2022-07-23T03:23:56;17.30;98.70
48876;DHT22;34689;51.644;5.618;2022-07-23T03:26:22;17.30;98.80
48876;DHT22;34689;51.644;5.618;2022-07-23T03:28:50;17.30;98.80
48876;DHT22;34689;51.644;5.618;2022-07-23T03:31:16;17.20;98.80
48876;DHT22;34689;51.644;5.618;2022-07-23T03:33:41;17.30;98.80
48876;DHT22;34689;51.644;5.618;2022-07-23T03:36:08;17.20;98.80
48876;DHT22;34689;51.644;5.618;2022-07-23T03:38:33;17.20;98.80
48876;DHT22;34689;51.644;5.618;2022-07-23T03:40:59;17.20;98.90
48876;DHT22;34689;51.644;5.618;2022-07-23T03:43:25;17.10;98.90
48876;DHT22;34689;51.644;5.618;2022-07-23T03:45:51;17.10;98.90
48876;DHT22;34689;51.644;5.618;2022-07-23T03:48:17;17.10;98.90
48876;DHT22;34689;51.644;5.618;2022-07-23T03:50:43;17.10;98.90
48876;DHT22;34689;51.644;5.618;2022-07-23T03:53:08;17.10;99.00
48876;DHT22;34689;51.644;5.618;2022-07-23T03:55:36;17.10;99.00
48876;DHT22;34689;51.644;5.618;2022-07-23T03:58:02;17.00;99.00
48876;DHT22;34689;51.644;5.618;2022-07-23T04:00:28;17.00;99.00
48876;DHT22;34689;51.644;5.618;2022-07-23T04:02:53;17.00;99.10
48876;DHT22;34689;51.644;5.618;2022-07-23T04:05:19;17.00;99.10
48876;DHT22;34689;51.644;5.618;2022-07-23T04:07:45;17.00;99.10
48876;DHT22;34689;51.644;5.618;2022-07-23T04:10:10;17.00;99.10
48876;DHT22;34689;51.644;5.618;2022-07-23T04:12:36;16.90;99.10
48876;DHT22;34689;51.644;5.618;2022-07-23T04:15:02;16.90;99.10
48876;DHT22;34689;51.644;5.618;2022-07-23T04:17:27;16.90;99.20
48876;DHT22;34689;51.644;5.618;2022-07-23T04:19:53;16.90;99.10
48876;DHT22;34689;51.644;5.618;2022-07-23T04:22:19;16.90;99.20
48876;DHT22;34689;51.644;5.618;2022-07-23T04:24:45;16.90;99.20
48876;DHT22;34689;51.644;5.618;2022-07-23T04:27:11;16.90;99.20
48876;DHT22;34689;51.644;5.618;2022-07-23T04:29:36;16.90;99.30
48876;DHT22;34689;51.644;5.618;2022-07-23T04:32:02;16.90;99.20
48876;DHT22;34689;51.644;5.618;2022-07-23T04:34:28;16.90;99.20
48876;DHT22;34689;51.644;5.618;2022-07-23T04:36:54;16.90;99.30
48876;DHT22;34689;51.644;5.618;2022-07-23T04:39:20;16.80;99.30
48876;DHT22;34689;51.644;5.618;2022-07-23T04:41:45;16.80;99.30
48876;DHT22;34689;51.644;5.618;2022-07-23T04:44:11;16.80;99.40
48876;DHT22;34689;51.644;5.618;2022-07-23T04:46:37;16.90;99.40
48876;DHT22;34689;51.644;5.618;2022-07-23T04:49:03;16.90;99.40
48876;DHT22;34689;51.644;5.618;2022-07-23T04:51:29;16.90;99.40
48876;DHT22;34689;51.644;5.618;2022-07-23T04:53:55;16.90;99.40
48876;DHT22;34689;51.644;5.618;2022-07-23T04:56:20;16.90;99.40
48876;DHT22;34689;51.644;5.618;2022-07-23T04:58:46;17.00;99.40
48876;DHT22;34689;51.644;5.618;2022-07-23T05:01:12;17.00;99.40
48876;DHT22;34689;51.644;5.618;2022-07-23T05:03:37;17.00;99.40
48876;DHT22;34689;51.644;5.618;2022-07-23T05:06:03;17.00;99.40
48876;DHT22;34689;51.644;5.618;2022-07-23T05:08:29;17.00;99.50
48876;DHT22;34689;51.644;5.618;2022-07-23T05:10:55;17.00;99.50
48876;DHT22;34689;51.644;5.618;2022-07-23T05:13:21;17.00;99.50
48876;DHT22;34689;51.644;5.618;2022-07-23T05:15:47;17.00;99.60
48876;DHT22;34689;51.644;5.618;2022-07-23T05:18:13;17.00;99.60
48876;DHT22;34689;51.644;5.618;2022-07-23T05:20:38;17.10;99.60
48876;DHT22;34689;51.644;5.618;2022-07-23T05:23:04;17.10;99.60
48876;DHT22;34689;51.644;5.618;2022-07-23T05:25:30;17.10;99.60
48876;DHT22;34689;51.644;5.618;2022-07-23T05:27:56;17.10;99.60
48876;DHT22;34689;51.644;5.618;2022-07-23T05:30:22;17.10;99.70
48876;DHT22;34689;51.644;5.618;2022-07-23T05:32:48;17.10;99.60
48876;DHT22;34689;51.644;5.618;2022-07-23T05:35:14;17.20;99.60
48876;DHT22;34689;51.644;5.618;2022-07-23T05:37:40;17.20;99.60
48876;DHT22;34689;51.644;5.618;2022-07-23T05:40:08;17.30;99.60
48876;DHT22;34689;51.644;5.618;2022-07-23T05:42:35;17.30;99.50
48876;DHT22;34689;51.644;5.618;2022-07-23T05:45:01;17.30;99.50
48876;DHT22;34689;51.644;5.618;2022-07-23T05:47:27;17.30;99.50
48876;DHT22;34689;51.644;5.618;2022-07-23T05:49:52;17.30;99.60
48876;DHT22;34689;51.644;5.618;2022-07-23T05:52:18;17.30;99.70
48876;DHT22;34689;51.644;5.618;2022-07-23T05:54:44;17.30;99.70
48876;DHT22;34689;51.644;5.618;2022-07-23T05:57:09;17.30;99.70
48876;DHT22;34689;51.644;5.618;2022-07-23T05:59:38;17.40;99.70
48876;DHT22;34689;51.644;5.618;2022-07-23T06:02:03;17.40;99.90
48876;DHT22;34689;51.644;5.618;2022-07-23T06:04:29;17.50;99.70
48876;DHT22;34689;51.644;5.618;2022-07-23T06:06:54;17.40;99.70
48876;DHT22;34689;51.644;5.618;2022-07-23T06:09:20;17.40;99.80
48876;DHT22;34689;51.644;5.618;2022-07-23T06:11:46;17.50;99.80
48876;DHT22;34689;51.644;5.618;2022-07-23T06:14:11;17.40;99.90
48876;DHT22;34689;51.644;5.618;2022-07-23T06:16:37;17.50;99.90
48876;DHT22;34689;51.644;5.618;2022-07-23T06:19:03;17.50;99.90
48876;DHT22;34689;51.644;5.618;2022-07-23T06:21:28;17.60;99.80
48876;DHT22;34689;51.644;5.618;2022-07-23T06:23:54;17.70;99.70
48876;DHT22;34689;51.644;5.618;2022-07-23T06:26:19;17.70;99.60
48876;DHT22;34689;51.644;5.618;2022-07-23T06:28:45;17.80;99.50
48876;DHT22;34689;51.644;5.618;2022-07-23T06:31:11;17.90;99.40
48876;DHT22;34689;51.644;5.618;2022-07-23T06:33:37;18.00;99.30
48876;DHT22;34689;51.644;5.618;2022-07-23T06:36:02;18.00;99.20
48876;DHT22;34689;51.644;5.618;2022-07-23T06:38:28;18.00;99.30
48876;DHT22;34689;51.644;5.618;2022-07-23T06:40:54;18.10;99.30
48876;DHT22;34689;51.644;5.618;2022-07-23T06:43:19;18.10;99.20
48876;DHT22;34689;51.644;5.618;2022-07-23T06:45:45;18.10;99.20
48876;DHT22;34689;51.644;5.618;2022-07-23T06:48:11;18.20;99.20
48876;DHT22;34689;51.644;5.618;2022-07-23T06:50:37;18.10;99.10
48876;DHT22;34689;51.644;5.618;2022-07-23T06:53:02;18.10;99.10
48876;DHT22;34689;51.644;5.618;2022-07-23T06:55:28;18.20;99.10
48876;DHT22;34689;51.644;5.618;2022-07-23T06:57:54;18.20;99.10
48876;DHT22;34689;51.644;5.618;2022-07-23T07:00:20;18.20;99.00
48876;DHT22;34689;51.644;5.618;2022-07-23T07:02:45;18.30;99.00
48876;DHT22;34689;51.644;5.618;2022-07-23T07:05:11;18.30;99.00
48876;DHT22;34689;51.644;5.618;2022-07-23T07:07:39;18.30;99.00
48876;DHT22;34689;51.644;5.618;2022-07-23T07:10:05;18.30;99.00
48876;DHT22;34689;51.644;5.618;2022-07-23T07:12:31;18.40;98.90
48876;DHT22;34689;51.644;5.618;2022-07-23T07:14:56;18.40;99.00
48876;DHT22;34689;51.644;5.618;2022-07-23T07:17:22;18.40;98.90
48876;DHT22;34689;51.644;5.618;2022-07-23T07:19:48;18.40;98.90
48876;DHT22;34689;51.644;5.618;2022-07-23T07:22:16;18.50;98.80
48876;DHT22;34689;51.644;5.618;2022-07-23T07:24:42;18.50;98.80
48876;DHT22;34689;51.644;5.618;2022-07-23T07:27:08;18.60;98.70
48876;DHT22;34689;51.644;5.618;2022-07-23T07:29:33;18.60;98.60
48876;DHT22;34689;51.644;5.618;2022-07-23T07:31:59;18.70;98.50
48876;DHT22;34689;51.644;5.618;2022-07-23T07:34:24;18.70;98.70
48876;DHT22;34689;51.644;5.618;2022-07-23T07:36:50;18.70;98.40
48876;DHT22;34689;51.644;5.618;2022-07-23T07:39:16;18.80;98.30
48876;DHT22;34689;51.644;5.618;2022-07-23T07:41:42;18.70;98.20
48876;DHT22;34689;51.644;5.618;2022-07-23T07:44:07;18.70;98.20
48876;DHT22;34689;51.644;5.618;2022-07-23T07:46:33;18.80;98.10
48876;DHT22;34689;51.644;5.618;2022-07-23T07:48:59;18.80;98.00
48876;DHT22;34689;51.644;5.618;2022-07-23T07:51:27;18.80;98.00
48876;DHT22;34689;51.644;5.618;2022-07-23T07:53:54;18.80;98.00
48876;DHT22;34689;51.644;5.618;2022-07-23T07:56:19;18.90;98.10
48876;DHT22;34689;51.644;5.618;2022-07-23T07:58:45;18.90;98.10
48876;DHT22;34689;51.644;5.618;2022-07-23T08:01:11;19.00;98.10
48876;DHT22;34689;51.644;5.618;2022-07-23T08:03:36;19.00;97.90
48876;DHT22;34689;51.644;5.618;2022-07-23T08:06:02;19.00;97.90
48876;DHT22;34689;51.644;5.618;2022-07-23T08:08:28;19.00;97.90
48876;DHT22;34689;51.644;5.618;2022-07-23T08:10:53;19.10;97.80
48876;DHT22;34689;51.644;5.618;2022-07-23T08:13:19;19.10;97.70
48876;DHT22;34689;51.644;5.618;2022-07-23T08:15:45;19.20;97.60
48876;DHT22;34689;51.644;5.618;2022-07-23T08:18:11;19.20;97.60
48876;DHT22;34689;51.644;5.618;2022-07-23T08:20:36;19.30;97.60
48876;DHT22;34689;51.644;5.618;2022-07-23T08:23:07;19.30;97.50
48876;DHT22;34689;51.644;5.618;2022-07-23T08:25:38;19.30;97.50
48876;DHT22;34689;51.644;5.618;2022-07-23T08:28:05;19.40;97.40
48876;DHT22;34689;51.644;5.618;2022-07-23T08:30:33;19.40;97.30
48876;DHT22;34689;51.644;5.618;2022-07-23T08:33:11;19.50;97.20
48876;DHT22;34689;51.644;5.618;2022-07-23T08:35:48;19.50;97.30
48876;DHT22;34689;51.644;5.618;2022-07-23T08:38:17;19.60;97.20
48876;DHT22;34689;51.644;5.618;2022-07-23T08:40:45;19.60;97.20
48876;DHT22;34689;51.644;5.618;2022-07-23T08:43:14;19.60;97.20
48876;DHT22;34689;51.644;5.618;2022-07-23T08:45:46;19.70;97.20
48876;DHT22;34689;51.644;5.618;2022-07-23T08:48:23;19.70;97.00
48876;DHT22;34689;51.644;5.618;2022-07-23T08:50:58;19.70;96.90
48876;DHT22;34689;51.644;5.618;2022-07-23T08:53:26;19.70;96.90
48876;DHT22;34689;51.644;5.618;2022-07-23T08:55:54;19.80;96.80
48876;DHT22;34689;51.644;5.618;2022-07-23T08:58:20;19.80;96.80
48876;DHT22;34689;51.644;5.618;2022-07-23T09:00:47;19.90;96.70
48876;DHT22;34689;51.644;5.618;2022-07-23T09:03:24;19.90;96.60
48876;DHT22;34689;51.644;5.618;2022-07-23T09:05:52;20.00;96.50
48876;DHT22;34689;51.644;5.618;2022-07-23T09:08:20;20.10;96.50
48876;DHT22;34689;51.644;5.618;2022-07-23T09:10:57;20.10;96.30
48876;DHT22;34689;51.644;5.618;2022-07-23T09:13:46;20.20;96.30
48876;DHT22;34689;51.644;5.618;2022-07-23T09:16:18;20.30;96.30
48876;DHT22;34689;51.644;5.618;2022-07-23T09:18:48;20.40;95.90
48876;DHT22;34689;51.644;5.618;2022-07-23T09:23:45;20.40;95.80
48876;DHT22;34689;51.644;5.618;2022-07-23T09:26:30;20.50;95.80
48876;DHT22;34689;51.644;5.618;2022-07-23T09:31:55;20.60;95.70
48876;DHT22;34689;51.644;5.618;2022-07-23T09:34:24;20.60;95.70
48876;DHT22;34689;51.644;5.618;2022-07-23T09:36:58;20.70;95.80
48876;DHT22;34689;51.644;5.618;2022-07-23T09:39:32;20.70;95.80
48876;DHT22;34689;51.644;5.618;2022-07-23T09:42:16;20.80;95.70
48876;DHT22;34689;51.644;5.618;2022-07-23T09:44:43;20.80;95.60
48876;DHT22;34689;51.644;5.618;2022-07-23T09:47:09;20.90;95.60
48876;DHT22;34689;51.644;5.618;2022-07-23T09:49:34;20.90;95.50
48876;DHT22;34689;51.644;5.618;2022-07-23T09:52:03;20.90;95.30
48876;DHT22;34689;51.644;5.618;2022-07-23T09:54:31;21.00;95.50
48876;DHT22;34689;51.644;5.618;2022-07-23T09:57:02;21.00;95.50
48876;DHT22;34689;51.644;5.618;2022-07-23T09:59:31;21.10;95.30
48876;DHT22;34689;51.644;5.618;2022-07-23T10:01:59;21.20;95.00
48876;DHT22;34689;51.644;5.618;2022-07-23T10:04:27;21.30;94.80
48876;DHT22;34689;51.644;5.618;2022-07-23T10:07:01;21.40;94.80
48876;DHT22;34689;51.644;5.618;2022-07-23T10:09:29;21.60;94.50
48876;DHT22;34689;51.644;5.618;2022-07-23T10:12:00;21.70;94.10
48876;DHT22;34689;51.644;5.618;2022-07-23T10:14:31;21.80;94.20
48876;DHT22;34689;51.644;5.618;2022-07-23T10:16:58;22.00;94.10
48876;DHT22;34689;51.644;5.618;2022-07-23T10:19:24;22.30;93.80
48876;DHT22;34689;51.644;5.618;2022-07-23T10:21:55;23.40;92.60
48876;DHT22;34689;51.644;5.618;2022-07-23T10:24:47;24.20;91.20
48876;DHT22;34689;51.644;5.618;2022-07-23T10:30:00;25.00;90.50
48876;DHT22;34689;51.644;5.618;2022-07-23T10:38:55;27.30;84.60
48876;DHT22;34689;51.644;5.618;2022-07-23T10:41:02;27.30;83.60
48876;DHT22;34689;51.644;5.618;2022-07-23T10:43:29;26.80;81.40
48876;DHT22;34689;51.644;5.618;2022-07-23T10:45:56;26.10;85.70
48876;DHT22;34689;51.644;5.618;2022-07-23T10:48:41;25.50;88.40
48876;DHT22;34689;51.644;5.618;2022-07-23T10:51:15;25.10;89.50
48876;DHT22;34689;51.644;5.618;2022-07-23T10:57:03;24.80;90.20
48876;DHT22;34689;51.644;5.618;2022-07-23T10:59:07;24.70;90.10
48876;DHT22;34689;51.644;5.618;2022-07-23T11:01:38;24.60;89.80
48876;DHT22;34689;51.644;5.618;2022-07-23T11:04:05;24.50;89.90
48876;DHT22;34689;51.644;5.618;2022-07-23T11:09:42;24.10;88.90
48876;DHT22;34689;51.644;5.618;2022-07-23T11:14:58;23.80;90.60
48876;DHT22;34689;51.644;5.618;2022-07-23T11:17:25;23.70;90.30
48876;DHT22;34689;51.644;5.618;2022-07-23T11:25:13;23.50;90.60
48876;DHT22;34689;51.644;5.618;2022-07-23T11:27:43;23.50;90.50
48876;DHT22;34689;51.644;5.618;2022-07-23T11:35:45;23.40;90.40
48876;DHT22;34689;51.644;5.618;2022-07-23T11:38:19;23.40;90.40
48876;DHT22;34689;51.644;5.618;2022-07-23T11:40:48;23.40;90.40
48876;DHT22;34689;51.644;5.618;2022-07-23T11:43:15;23.40;90.30
48876;DHT22;34689;51.644;5.618;2022-07-23T11:45:43;23.40;90.50
48876;DHT22;34689;51.644;5.618;2022-07-23T11:48:25;23.40;90.50
48876;DHT22;34689;51.644;5.618;2022-07-23T11:50:52;23.40;90.00
48876;DHT22;34689;51.644;5.618;2022-07-23T11:53:26;23.40;90.10
48876;DHT22;34689;51.644;5.618;2022-07-23T11:55:52;23.30;90.00
48876;DHT22;34689;51.644;5.618;2022-07-23T11:58:18;23.30;89.60
48876;DHT22;34689;51.644;5.618;2022-07-23T12:00:44;23.30;89.60
48876;DHT22;34689;51.644;5.618;2022-07-23T12:03:10;23.30;89.80
48876;DHT22;34689;51.644;5.618;2022-07-23T12:05:37;23.40;89.90
48876;DHT22;34689;51.644;5.618;2022-07-23T12:08:05;23.40;89.50
48876;DHT22;34689;51.644;5.618;2022-07-23T12:10:42;23.40;89.10
48876;DHT22;34689;51.644;5.618;2022-07-23T12:13:13;23.50;87.80
48876;DHT22;34689;51.644;5.618;2022-07-23T12:15:42;23.50;87.90
48876;DHT22;34689;51.644;5.618;2022-07-23T12:18:11;23.50;87.90
48876;DHT22;34689;51.644;5.618;2022-07-23T12:20:50;23.60;87.10
48876;DHT22;34689;51.644;5.618;2022-07-23T12:23:17;23.60;86.10
48876;DHT22;34689;51.644;5.618;2022-07-23T12:25:45;23.60;86.10
48876;DHT22;34689;51.644;5.618;2022-07-23T12:33:04;23.50;87.20
48876;DHT22;34689;51.644;5.618;2022-07-23T12:35:36;23.60;86.90
48876;DHT22;34689;51.644;5.618;2022-07-23T12:38:20;23.60;86.90
48876;DHT22;34689;51.644;5.618;2022-07-23T12:40:57;23.70;86.50
48876;DHT22;34689;51.644;5.618;2022-07-23T12:43:32;23.70;86.60
48876;DHT22;34689;51.644;5.618;2022-07-23T12:46:15;23.70;86.30
48876;DHT22;34689;51.644;5.618;2022-07-23T12:48:51;23.60;86.00
48876;DHT22;34689;51.644;5.618;2022-07-23T12:51:25;23.70;86.40
48876;DHT22;34689;51.644;5.618;2022-07-23T12:53:55;23.70;86.20
48876;DHT22;34689;51.644;5.618;2022-07-23T12:56:36;23.70;86.10
48876;DHT22;34689;51.644;5.618;2022-07-23T12:59:06;23.70;86.30
48876;DHT22;34689;51.644;5.618;2022-07-23T13:01:36;23.70;85.80
48876;DHT22;34689;51.644;5.618;2022-07-23T13:09:10;23.70;85.50
48876;DHT22;34689;51.644;5.618;2022-07-23T13:11:36;23.70;85.50
48876;DHT22;34689;51.644;5.618;2022-07-23T13:14:02;23.90;85.10
48876;DHT22;34689;51.644;5.618;2022-07-23T13:16:29;24.00;84.60
48876;DHT22;34689;51.644;5.618;2022-07-23T13:18:55;24.20;84.10
48876;DHT22;34689;51.644;5.618;2022-07-23T13:21:22;24.30;83.90
48876;DHT22;34689;51.644;5.618;2022-07-23T13:23:48;24.50;83.50
48876;DHT22;34689;51.644;5.618;2022-07-23T13:26:14;24.60;83.10
48876;DHT22;34689;51.644;5.618;2022-07-23T13:28:39;24.80;82.70
48876;DHT22;34689;51.644;5.618;2022-07-23T13:31:05;24.90;82.00
48876;DHT22;34689;51.644;5.618;2022-07-23T13:33:31;25.10;81.60
48876;DHT22;34689;51.644;5.618;2022-07-23T13:35:57;25.20;79.80
48876;DHT22;34689;51.644;5.618;2022-07-23T13:38:23;25.20;80.00
48876;DHT22;34689;51.644;5.618;2022-07-23T13:40:50;25.30;79.50
48876;DHT22;34689;51.644;5.618;2022-07-23T13:43:18;25.30;79.00
48876;DHT22;34689;51.644;5.618;2022-07-23T13:45:44;25.30;79.20
48876;DHT22;34689;51.644;5.618;2022-07-23T13:48:12;25.40;79.70
48876;DHT22;34689;51.644;5.618;2022-07-23T13:50:39;25.40;79.20
48876;DHT22;34689;51.644;5.618;2022-07-23T13:53:10;25.50;78.80
48876;DHT22;34689;51.644;5.618;2022-07-23T13:55:36;25.60;79.10
48876;DHT22;34689;51.644;5.618;2022-07-23T13:58:03;25.50;78.50
48876;DHT22;34689;51.644;5.618;2022-07-23T14:00:30;25.50;78.70
48876;DHT22;34689;51.644;5.618;2022-07-23T14:02:57;25.60;78.70
48876;DHT22;34689;51.644;5.618;2022-07-23T14:05:23;25.50;78.70
48876;DHT22;34689;51.644;5.618;2022-07-23T14:07:48;25.60;78.60
48876;DHT22;34689;51.644;5.618;2022-07-23T14:10:16;25.60;78.70
48876;DHT22;34689;51.644;5.618;2022-07-23T14:12:44;25.60;77.70
48876;DHT22;34689;51.644;5.618;2022-07-23T14:15:10;25.60;78.20
48876;DHT22;34689;51.644;5.618;2022-07-23T14:17:37;25.60;78.10
48876;DHT22;34689;51.644;5.618;2022-07-23T14:20:04;25.70;78.20
48876;DHT22;34689;51.644;5.618;2022-07-23T14:22:30;25.70;78.50
48876;DHT22;34689;51.644;5.618;2022-07-23T14:24:56;25.80;78.20
48876;DHT22;34689;51.644;5.618;2022-07-23T14:27:24;25.80;77.40
48876;DHT22;34689;51.644;5.618;2022-07-23T14:29:51;25.70;77.90
48876;DHT22;34689;51.644;5.618;2022-07-23T14:32:17;25.80;78.40
48876;DHT22;34689;51.644;5.618;2022-07-23T14:34:42;25.70;78.00
48876;DHT22;34689;51.644;5.618;2022-07-23T14:37:10;25.80;78.20
48876;DHT22;34689;51.644;5.618;2022-07-23T14:39:37;25.90;77.90
48876;DHT22;34689;51.644;5.618;2022-07-23T14:42:04;25.80;78.70
48876;DHT22;34689;51.644;5.618;2022-07-23T14:44:29;25.90;78.00
48876;DHT22;34689;51.644;5.618;2022-07-23T14:46:55;25.80;78.30
48876;DHT22;34689;51.644;5.618;2022-07-23T14:49:21;25.80;78.10
48876;DHT22;34689;51.644;5.618;2022-07-23T14:51:47;25.70;78.00
48876;DHT22;34689;51.644;5.618;2022-07-23T14:54:13;25.60;78.40
48876;DHT22;34689;51.644;5.618;2022-07-23T14:56:40;25.60;78.50
48876;DHT22;34689;51.644;5.618;2022-07-23T14:59:06;25.70;78.50
48876;DHT22;34689;51.644;5.618;2022-07-23T15:01:34;25.60;78.20
48876;DHT22;34689;51.644;5.618;2022-07-23T15:04:00;25.60;78.40
48876;DHT22;34689;51.644;5.618;2022-07-23T15:06:26;25.60;78.70
48876;DHT22;34689;51.644;5.618;2022-07-23T15:08:52;25.60;78.80
48876;DHT22;34689;51.644;5.618;2022-07-23T15:11:18;25.50;79.10
48876;DHT22;34689;51.644;5.618;2022-07-23T15:13:43;25.50;79.10
48876;DHT22;34689;51.644;5.618;2022-07-23T15:16:09;25.40;79.20
48876;DHT22;34689;51.644;5.618;2022-07-23T15:18:36;25.40;79.00
48876;DHT22;34689;51.644;5.618;2022-07-23T15:21:02;25.40;79.20
48876;DHT22;34689;51.644;5.618;2022-07-23T15:23:31;25.40;79.00
48876;DHT22;34689;51.644;5.618;2022-07-23T15:25:57;25.40;78.30
48876;DHT22;34689;51.644;5.618;2022-07-23T15:28:23;25.40;78.60
48876;DHT22;34689;51.644;5.618;2022-07-23T15:30:49;25.40;78.90
48876;DHT22;34689;51.644;5.618;2022-07-23T15:33:16;25.40;79.10
48876;DHT22;34689;51.644;5.618;2022-07-23T15:35:42;25.40;79.10
48876;DHT22;34689;51.644;5.618;2022-07-23T15:38:08;25.40;79.00
48876;DHT22;34689;51.644;5.618;2022-07-23T15:40:36;25.40;79.10
48876;DHT22;34689;51.644;5.618;2022-07-23T15:43:01;25.30;79.10
48876;DHT22;34689;51.644;5.618;2022-07-23T15:45:27;25.30;79.40
48876;DHT22;34689;51.644;5.618;2022-07-23T15:47:54;25.30;79.40
48876;DHT22;34689;51.644;5.618;2022-07-23T15:50:20;25.30;79.00
48876;DHT22;34689;51.644;5.618;2022-07-23T15:52:45;25.20;78.90
48876;DHT22;34689;51.644;5.618;2022-07-23T15:55:11;25.20;78.50
48876;DHT22;34689;51.644;5.618;2022-07-23T15:57:37;25.20;78.60
48876;DHT22;34689;51.644;5.618;2022-07-23T16:00:04;25.20;78.90
48876;DHT22;34689;51.644;5.618;2022-07-23T16:02:31;25.10;79.00
48876;DHT22;34689;51.644;5.618;2022-07-23T16:04:59;25.20;79.10
48876;DHT22;34689;51.644;5.618;2022-07-23T16:07:24;25.20;79.00
48876;DHT22;34689;51.644;5.618;2022-07-23T16:09:50;25.20;79.00
48876;DHT22;34689;51.644;5.618;2022-07-23T16:12:16;25.20;79.10
48876;DHT22;34689;51.644;5.618;2022-07-23T16:14:46;25.10;79.10